Terminal Aerodrome Forecast
Issued by NWS

Home | Current Version | Previous Version | Graphics & Text | Print | Product List | Glossary On
Versions: 1 2 3 4 5 6 7 8 9 10 11 12 13 14 15 16
730
FTUS43 KABR 251728
TAFATY
TAF
KATY 251728Z 2518/2618 30015G25KT P6SM OVC025
     FM252100 31018G26KT P6SM SCT120
     FM260200 30010KT P6SM SKC
     FM261400 31017G27KT P6SM SKC=

USA.gov is the U.S. government's official web portal to all federal, state and local government web resources and services.